sensor_id;sensor_type;location;lat;lon;timestamp;P1;durP1;ratioP1;P2;durP2;ratioP2
37157;SDS011;23050;51.776;22.638;2023-10-31T00:01:18;26.88;;;13.27;;
37157;SDS011;23050;51.776;22.638;2023-10-31T00:03:45;33.17;;;14.45;;
37157;SDS011;23050;51.776;22.638;2023-10-31T00:06:11;26.13;;;13.82;;
37157;SDS011;23050;51.776;22.638;2023-10-31T00:08:36;23.85;;;13.30;;
37157;SDS011;23050;51.776;22.638;2023-10-31T00:11:02;29.88;;;14.02;;
37157;SDS011;23050;51.776;22.638;2023-10-31T00:13:28;31.08;;;13.02;;
37157;SDS011;23050;51.776;22.638;2023-10-31T00:15:53;24.40;;;12.52;;
37157;SDS011;23050;51.776;22.638;2023-10-31T00:18:19;28.73;;;13.13;;
37157;SDS011;23050;51.776;22.638;2023-10-31T00:20:46;24.23;;;12.35;;
37157;SDS011;23050;51.776;22.638;2023-10-31T00:23:11;23.70;;;13.20;;
37157;SDS011;23050;51.776;22.638;2023-10-31T00:25:37;27.17;;;13.32;;
37157;SDS011;23050;51.776;22.638;2023-10-31T00:28:03;27.80;;;13.85;;
37157;SDS011;23050;51.776;22.638;2023-10-31T00:30:28;23.88;;;12.35;;
37157;SDS011;23050;51.776;22.638;2023-10-31T00:32:54;29.95;;;12.68;;
37157;SDS011;23050;51.776;22.638;2023-10-31T00:35:20;20.80;;;11.98;;
37157;SDS011;23050;51.776;22.638;2023-10-31T00:37:45;28.15;;;13.88;;
37157;SDS011;23050;51.776;22.638;2023-10-31T00:40:11;24.15;;;12.88;;
37157;SDS011;23050;51.776;22.638;2023-10-31T00:42:37;25.75;;;13.25;;
37157;SDS011;23050;51.776;22.638;2023-10-31T00:45:05;25.53;;;12.37;;
37157;SDS011;23050;51.776;22.638;2023-10-31T00:47:32;26.13;;;11.02;;
37157;SDS011;23050;51.776;22.638;2023-10-31T00:49:58;25.20;;;12.38;;
37157;SDS011;23050;51.776;22.638;2023-10-31T00:52:23;24.20;;;11.90;;
37157;SDS011;23050;51.776;22.638;2023-10-31T00:54:49;23.08;;;11.70;;
37157;SDS011;23050;51.776;22.638;2023-10-31T00:57:14;21.02;;;12.00;;
37157;SDS011;23050;51.776;22.638;2023-10-31T00:59:40;20.42;;;10.38;;
37157;SDS011;23050;51.776;22.638;2023-10-31T01:02:06;21.50;;;11.98;;
37157;SDS011;23050;51.776;22.638;2023-10-31T01:04:31;18.10;;;10.70;;
37157;SDS011;23050;51.776;22.638;2023-10-31T01:06:57;22.65;;;10.35;;
37157;SDS011;23050;51.776;22.638;2023-10-31T01:09:23;20.27;;;9.38;;
37157;SDS011;23050;51.776;22.638;2023-10-31T01:11:48;18.08;;;10.98;;
37157;SDS011;23050;51.776;22.638;2023-10-31T01:14:14;21.77;;;10.40;;
37157;SDS011;23050;51.776;22.638;2023-10-31T01:16:40;22.08;;;9.98;;
37157;SDS011;23050;51.776;22.638;2023-10-31T01:19:05;16.10;;;9.57;;
37157;SDS011;23050;51.776;22.638;2023-10-31T01:21:32;20.88;;;9.65;;
37157;SDS011;23050;51.776;22.638;2023-10-31T01:23:58;17.77;;;9.38;;
37157;SDS011;23050;51.776;22.638;2023-10-31T01:26:24;17.77;;;8.10;;
37157;SDS011;23050;51.776;22.638;2023-10-31T01:28:49;19.35;;;8.63;;
37157;SDS011;23050;51.776;22.638;2023-10-31T01:31:15;18.08;;;8.75;;
37157;SDS011;23050;51.776;22.638;2023-10-31T01:33:41;20.10;;;8.60;;
37157;SDS011;23050;51.776;22.638;2023-10-31T01:36:06;14.63;;;8.30;;
37157;SDS011;23050;51.776;22.638;2023-10-31T01:38:32;16.98;;;8.00;;
37157;SDS011;23050;51.776;22.638;2023-10-31T01:40:58;13.73;;;7.63;;
37157;SDS011;23050;51.776;22.638;2023-10-31T01:45:59;15.45;;;8.52;;
37157;SDS011;23050;51.776;22.638;2023-10-31T01:48:25;16.45;;;7.88;;
37157;SDS011;23050;51.776;22.638;2023-10-31T01:50:53;12.98;;;7.10;;
37157;SDS011;23050;51.776;22.638;2023-10-31T01:53:19;16.38;;;7.57;;
37157;SDS011;23050;51.776;22.638;2023-10-31T01:55:45;13.07;;;7.10;;
37157;SDS011;23050;51.776;22.638;2023-10-31T01:58:11;13.98;;;6.78;;
37157;SDS011;23050;51.776;22.638;2023-10-31T02:00:39;15.80;;;6.65;;
37157;SDS011;23050;51.776;22.638;2023-10-31T02:03:08;17.98;;;7.30;;
37157;SDS011;23050;51.776;22.638;2023-10-31T02:05:34;16.95;;;7.55;;
37157;SDS011;23050;51.776;22.638;2023-10-31T02:08:00;15.00;;;8.10;;
37157;SDS011;23050;51.776;22.638;2023-10-31T02:10:26;13.15;;;7.20;;
37157;SDS011;23050;51.776;22.638;2023-10-31T02:12:52;16.83;;;7.55;;
37157;SDS011;23050;51.776;22.638;2023-10-31T02:15:18;11.55;;;6.60;;
37157;SDS011;23050;51.776;22.638;2023-10-31T02:17:43;16.17;;;7.45;;
37157;SDS011;23050;51.776;22.638;2023-10-31T02:20:09;15.05;;;6.78;;
37157;SDS011;23050;51.776;22.638;2023-10-31T02:22:35;11.10;;;7.18;;
37157;SDS011;23050;51.776;22.638;2023-10-31T02:25:01;16.38;;;7.10;;
37157;SDS011;23050;51.776;22.638;2023-10-31T02:27:26;12.85;;;7.05;;
37157;SDS011;23050;51.776;22.638;2023-10-31T02:29:52;13.35;;;7.13;;
37157;SDS011;23050;51.776;22.638;2023-10-31T02:32:17;11.60;;;6.68;;
37157;SDS011;23050;51.776;22.638;2023-10-31T02:34:46;17.05;;;7.20;;
37157;SDS011;23050;51.776;22.638;2023-10-31T02:37:12;13.30;;;6.65;;
37157;SDS011;23050;51.776;22.638;2023-10-31T02:39:37;13.88;;;6.60;;
37157;SDS011;23050;51.776;22.638;2023-10-31T02:42:03;14.13;;;6.47;;
37157;SDS011;23050;51.776;22.638;2023-10-31T02:44:29;12.65;;;6.28;;
37157;SDS011;23050;51.776;22.638;2023-10-31T02:46:54;18.55;;;7.15;;
37157;SDS011;23050;51.776;22.638;2023-10-31T02:49:20;11.98;;;5.63;;
37157;SDS011;23050;51.776;22.638;2023-10-31T02:51:46;11.15;;;6.43;;
37157;SDS011;23050;51.776;22.638;2023-10-31T02:54:12;12.32;;;5.93;;
37157;SDS011;23050;51.776;22.638;2023-10-31T02:56:37;11.75;;;6.32;;
37157;SDS011;23050;51.776;22.638;2023-10-31T02:59:04;9.57;;;5.78;;
37157;SDS011;23050;51.776;22.638;2023-10-31T03:01:29;12.23;;;6.30;;
37157;SDS011;23050;51.776;22.638;2023-10-31T03:03:55;16.80;;;7.00;;
37157;SDS011;23050;51.776;22.638;2023-10-31T03:06:21;13.13;;;6.07;;
37157;SDS011;23050;51.776;22.638;2023-10-31T03:08:46;10.88;;;5.57;;
37157;SDS011;23050;51.776;22.638;2023-10-31T03:11:24;10.02;;;5.57;;
37157;SDS011;23050;51.776;22.638;2023-10-31T03:13:51;16.52;;;5.80;;
37157;SDS011;23050;51.776;22.638;2023-10-31T03:16:18;9.38;;;5.30;;
37157;SDS011;23050;51.776;22.638;2023-10-31T03:18:45;11.73;;;5.18;;
37157;SDS011;23050;51.776;22.638;2023-10-31T03:21:11;10.30;;;5.43;;
37157;SDS011;23050;51.776;22.638;2023-10-31T03:23:37;12.30;;;5.68;;
37157;SDS011;23050;51.776;22.638;2023-10-31T03:26:02;10.02;;;5.10;;
37157;SDS011;23050;51.776;22.638;2023-10-31T03:28:28;11.23;;;5.57;;
37157;SDS011;23050;51.776;22.638;2023-10-31T03:30:54;13.65;;;5.82;;
37157;SDS011;23050;51.776;22.638;2023-10-31T03:33:19;12.38;;;5.47;;
37157;SDS011;23050;51.776;22.638;2023-10-31T03:35:45;14.38;;;6.20;;
37157;SDS011;23050;51.776;22.638;2023-10-31T03:38:11;15.95;;;6.82;;
37157;SDS011;23050;51.776;22.638;2023-10-31T03:40:37;17.90;;;6.90;;
37157;SDS011;23050;51.776;22.638;2023-10-31T03:43:02;17.83;;;6.05;;
37157;SDS011;23050;51.776;22.638;2023-10-31T03:45:28;11.60;;;5.35;;
37157;SDS011;23050;51.776;22.638;2023-10-31T03:47:54;15.00;;;6.18;;
37157;SDS011;23050;51.776;22.638;2023-10-31T03:50:20;15.18;;;5.68;;
37157;SDS011;23050;51.776;22.638;2023-10-31T03:52:45;10.65;;;5.10;;
37157;SDS011;23050;51.776;22.638;2023-10-31T03:55:11;11.73;;;5.30;;
37157;SDS011;23050;51.776;22.638;2023-10-31T03:57:36;9.23;;;4.90;;
37157;SDS011;23050;51.776;22.638;2023-10-31T04:00:02;17.17;;;4.95;;
37157;SDS011;23050;51.776;22.638;2023-10-31T04:02:30;15.65;;;5.35;;
37157;SDS011;23050;51.776;22.638;2023-10-31T04:04:56;12.38;;;4.78;;
37157;SDS011;23050;51.776;22.638;2023-10-31T04:07:21;15.27;;;5.53;;
37157;SDS011;23050;51.776;22.638;2023-10-31T04:09:47;8.95;;;4.65;;
37157;SDS011;23050;51.776;22.638;2023-10-31T04:12:12;8.70;;;4.40;;
37157;SDS011;23050;51.776;22.638;2023-10-31T04:14:38;9.13;;;4.80;;
37157;SDS011;23050;51.776;22.638;2023-10-31T04:17:04;7.50;;;4.10;;
37157;SDS011;23050;51.776;22.638;2023-10-31T04:19:30;12.60;;;6.07;;
37157;SDS011;23050;51.776;22.638;2023-10-31T04:21:55;8.75;;;4.00;;
37157;SDS011;23050;51.776;22.638;2023-10-31T04:24:21;8.20;;;3.70;;
37157;SDS011;23050;51.776;22.638;2023-10-31T04:26:46;7.97;;;3.97;;
37157;SDS011;23050;51.776;22.638;2023-10-31T04:29:12;9.27;;;4.50;;
37157;SDS011;23050;51.776;22.638;2023-10-31T04:31:38;9.55;;;4.13;;
37157;SDS011;23050;51.776;22.638;2023-10-31T04:34:04;10.00;;;4.00;;
37157;SDS011;23050;51.776;22.638;2023-10-31T04:36:30;8.93;;;4.35;;
37157;SDS011;23050;51.776;22.638;2023-10-31T04:38:55;9.57;;;4.05;;
37157;SDS011;23050;51.776;22.638;2023-10-31T04:41:21;9.30;;;3.97;;
37157;SDS011;23050;51.776;22.638;2023-10-31T04:43:46;9.27;;;4.40;;
37157;SDS011;23050;51.776;22.638;2023-10-31T04:46:12;17.90;;;5.38;;
37157;SDS011;23050;51.776;22.638;2023-10-31T04:48:37;7.63;;;4.07;;
37157;SDS011;23050;51.776;22.638;2023-10-31T04:51:03;11.05;;;4.35;;
37157;SDS011;23050;51.776;22.638;2023-10-31T04:53:29;8.70;;;4.57;;
37157;SDS011;23050;51.776;22.638;2023-10-31T04:55:57;8.63;;;3.97;;
37157;SDS011;23050;51.776;22.638;2023-10-31T04:58:23;11.02;;;3.50;;
37157;SDS011;23050;51.776;22.638;2023-10-31T05:00:48;10.45;;;4.05;;
37157;SDS011;23050;51.776;22.638;2023-10-31T05:03:14;14.25;;;4.53;;
37157;SDS011;23050;51.776;22.638;2023-10-31T05:05:39;8.45;;;4.70;;
37157;SDS011;23050;51.776;22.638;2023-10-31T05:08:05;20.73;;;6.75;;
37157;SDS011;23050;51.776;22.638;2023-10-31T05:10:30;12.23;;;4.10;;
37157;SDS011;23050;51.776;22.638;2023-10-31T05:12:56;10.00;;;4.25;;
37157;SDS011;23050;51.776;22.638;2023-10-31T05:15:22;8.02;;;3.92;;
37157;SDS011;23050;51.776;22.638;2023-10-31T05:17:47;8.20;;;3.97;;
37157;SDS011;23050;51.776;22.638;2023-10-31T05:20:13;10.23;;;3.60;;
37157;SDS011;23050;51.776;22.638;2023-10-31T05:22:40;8.93;;;3.38;;
37157;SDS011;23050;51.776;22.638;2023-10-31T05:25:06;9.95;;;3.55;;
37157;SDS011;23050;51.776;22.638;2023-10-31T05:27:32;8.52;;;3.33;;
37157;SDS011;23050;51.776;22.638;2023-10-31T05:29:57;6.53;;;3.10;;
37157;SDS011;23050;51.776;22.638;2023-10-31T05:32:23;12.20;;;5.28;;
37157;SDS011;23050;51.776;22.638;2023-10-31T05:34:48;10.95;;;4.05;;
37157;SDS011;23050;51.776;22.638;2023-10-31T05:37:14;7.38;;;3.72;;
37157;SDS011;23050;51.776;22.638;2023-10-31T05:39:39;7.03;;;3.58;;
37157;SDS011;23050;51.776;22.638;2023-10-31T05:42:05;7.95;;;3.55;;
37157;SDS011;23050;51.776;22.638;2023-10-31T05:44:30;8.90;;;3.75;;
37157;SDS011;23050;51.776;22.638;2023-10-31T05:46:56;15.93;;;4.50;;
37157;SDS011;23050;51.776;22.638;2023-10-31T05:49:22;7.68;;;3.90;;
37157;SDS011;23050;51.776;22.638;2023-10-31T05:51:51;10.18;;;3.80;;
37157;SDS011;23050;51.776;22.638;2023-10-31T05:54:17;9.57;;;3.40;;
37157;SDS011;23050;51.776;22.638;2023-10-31T05:56:42;9.98;;;3.80;;
37157;SDS011;23050;51.776;22.638;2023-10-31T05:59:09;7.95;;;4.32;;
37157;SDS011;23050;51.776;22.638;2023-10-31T06:01:35;12.25;;;4.88;;
37157;SDS011;23050;51.776;22.638;2023-10-31T06:04:01;9.30;;;4.28;;
37157;SDS011;23050;51.776;22.638;2023-10-31T06:06:27;11.63;;;5.22;;
37157;SDS011;23050;51.776;22.638;2023-10-31T06:08:56;10.65;;;4.88;;
37157;SDS011;23050;51.776;22.638;2023-10-31T06:11:31;8.27;;;3.50;;
37157;SDS011;23050;51.776;22.638;2023-10-31T06:13:57;6.00;;;3.55;;
37157;SDS011;23050;51.776;22.638;2023-10-31T06:16:24;9.82;;;3.42;;
37157;SDS011;23050;51.776;22.638;2023-10-31T06:18:50;9.90;;;4.55;;
37157;SDS011;23050;51.776;22.638;2023-10-31T06:21:15;12.40;;;4.95;;
37157;SDS011;23050;51.776;22.638;2023-10-31T06:23:41;12.82;;;4.30;;
37157;SDS011;23050;51.776;22.638;2023-10-31T06:26:10;13.98;;;4.85;;
37157;SDS011;23050;51.776;22.638;2023-10-31T06:28:35;17.98;;;6.03;;
37157;SDS011;23050;51.776;22.638;2023-10-31T06:31:02;10.88;;;3.50;;
37157;SDS011;23050;51.776;22.638;2023-10-31T06:33:28;7.90;;;3.13;;
37157;SDS011;23050;51.776;22.638;2023-10-31T06:35:54;9.38;;;3.00;;
37157;SDS011;23050;51.776;22.638;2023-10-31T06:38:19;10.05;;;3.47;;
37157;SDS011;23050;51.776;22.638;2023-10-31T06:40:45;10.02;;;5.70;;
37157;SDS011;23050;51.776;22.638;2023-10-31T06:43:11;9.35;;;3.53;;
37157;SDS011;23050;51.776;22.638;2023-10-31T06:45:36;6.35;;;3.28;;
37157;SDS011;23050;51.776;22.638;2023-10-31T06:48:02;10.50;;;6.25;;
37157;SDS011;23050;51.776;22.638;2023-10-31T06:50:28;9.98;;;4.05;;
37157;SDS011;23050;51.776;22.638;2023-10-31T06:52:54;6.80;;;2.80;;
37157;SDS011;23050;51.776;22.638;2023-10-31T06:55:19;8.15;;;3.38;;
37157;SDS011;23050;51.776;22.638;2023-10-31T06:57:45;8.93;;;3.30;;
37157;SDS011;23050;51.776;22.638;2023-10-31T07:00:11;5.38;;;2.67;;
37157;SDS011;23050;51.776;22.638;2023-10-31T07:02:37;6.22;;;2.88;;
37157;SDS011;23050;51.776;22.638;2023-10-31T07:05:03;4.30;;;2.70;;
37157;SDS011;23050;51.776;22.638;2023-10-31T07:07:29;8.48;;;2.88;;
37157;SDS011;23050;51.776;22.638;2023-10-31T07:09:55;6.47;;;2.65;;
37157;SDS011;23050;51.776;22.638;2023-10-31T07:12:20;11.07;;;3.45;;
37157;SDS011;23050;51.776;22.638;2023-10-31T07:14:46;5.05;;;2.38;;
37157;SDS011;23050;51.776;22.638;2023-10-31T07:17:12;8.05;;;3.92;;
37157;SDS011;23050;51.776;22.638;2023-10-31T07:19:38;8.23;;;3.17;;
37157;SDS011;23050;51.776;22.638;2023-10-31T07:22:03;6.20;;;3.28;;
37157;SDS011;23050;51.776;22.638;2023-10-31T07:24:29;6.97;;;3.30;;
37157;SDS011;23050;51.776;22.638;2023-10-31T07:26:54;8.38;;;3.10;;
37157;SDS011;23050;51.776;22.638;2023-10-31T07:29:20;7.53;;;2.67;;
37157;SDS011;23050;51.776;22.638;2023-10-31T07:31:45;5.00;;;2.50;;
37157;SDS011;23050;51.776;22.638;2023-10-31T07:34:11;6.90;;;2.55;;
37157;SDS011;23050;51.776;22.638;2023-10-31T07:36:37;6.70;;;2.30;;
37157;SDS011;23050;51.776;22.638;2023-10-31T07:39:04;5.47;;;2.50;;
37157;SDS011;23050;51.776;22.638;2023-10-31T07:41:30;5.80;;;2.70;;
37157;SDS011;23050;51.776;22.638;2023-10-31T07:43:55;5.70;;;2.05;;
37157;SDS011;23050;51.776;22.638;2023-10-31T07:46:21;7.15;;;2.63;;
37157;SDS011;23050;51.776;22.638;2023-10-31T07:48:48;5.82;;;2.47;;
37157;SDS011;23050;51.776;22.638;2023-10-31T07:51:14;6.97;;;2.38;;
37157;SDS011;23050;51.776;22.638;2023-10-31T07:53:40;5.53;;;2.45;;
37157;SDS011;23050;51.776;22.638;2023-10-31T07:56:14;5.25;;;2.58;;
37157;SDS011;23050;51.776;22.638;2023-10-31T07:58:48;7.30;;;3.03;;
37157;SDS011;23050;51.776;22.638;2023-10-31T08:01:14;6.07;;;2.88;;
37157;SDS011;23050;51.776;22.638;2023-10-31T08:03:41;10.07;;;2.83;;
37157;SDS011;23050;51.776;22.638;2023-10-31T08:06:07;8.75;;;3.20;;
37157;SDS011;23050;51.776;22.638;2023-10-31T08:08:32;12.02;;;3.00;;
37157;SDS011;23050;51.776;22.638;2023-10-31T08:10:59;5.38;;;2.78;;
37157;SDS011;23050;51.776;22.638;2023-10-31T08:13:24;6.40;;;2.72;;
37157;SDS011;23050;51.776;22.638;2023-10-31T08:15:50;6.82;;;2.80;;
37157;SDS011;23050;51.776;22.638;2023-10-31T08:18:16;8.65;;;2.85;;
37157;SDS011;23050;51.776;22.638;2023-10-31T08:20:41;6.43;;;2.50;;
37157;SDS011;23050;51.776;22.638;2023-10-31T08:23:08;8.00;;;2.83;;
37157;SDS011;23050;51.776;22.638;2023-10-31T08:25:34;5.55;;;2.33;;
37157;SDS011;23050;51.776;22.638;2023-10-31T08:27:59;5.05;;;2.80;;
37157;SDS011;23050;51.776;22.638;2023-10-31T08:30:25;9.13;;;2.63;;
37157;SDS011;23050;51.776;22.638;2023-10-31T08:32:51;9.90;;;2.88;;
37157;SDS011;23050;51.776;22.638;2023-10-31T08:35:16;7.72;;;2.58;;
37157;SDS011;23050;51.776;22.638;2023-10-31T08:37:42;4.63;;;2.28;;
37157;SDS011;23050;51.776;22.638;2023-10-31T08:40:07;5.13;;;2.40;;
37157;SDS011;23050;51.776;22.638;2023-10-31T08:42:35;8.75;;;3.00;;
37157;SDS011;23050;51.776;22.638;2023-10-31T08:45:01;8.57;;;3.00;;
37157;SDS011;23050;51.776;22.638;2023-10-31T08:47:26;8.65;;;2.97;;
37157;SDS011;23050;51.776;22.638;2023-10-31T08:49:53;5.80;;;2.28;;
37157;SDS011;23050;51.776;22.638;2023-10-31T08:52:18;9.30;;;3.10;;
37157;SDS011;23050;51.776;22.638;2023-10-31T08:54:44;9.35;;;2.60;;
37157;SDS011;23050;51.776;22.638;2023-10-31T08:57:09;7.75;;;3.25;;
37157;SDS011;23050;51.776;22.638;2023-10-31T08:59:35;7.57;;;3.58;;
37157;SDS011;23050;51.776;22.638;2023-10-31T09:02:01;9.35;;;3.22;;
37157;SDS011;23050;51.776;22.638;2023-10-31T09:04:27;6.75;;;2.40;;
37157;SDS011;23050;51.776;22.638;2023-10-31T09:06:52;8.85;;;3.97;;
37157;SDS011;23050;51.776;22.638;2023-10-31T09:09:18;4.50;;;2.15;;
37157;SDS011;23050;51.776;22.638;2023-10-31T09:11:44;8.48;;;2.50;;
37157;SDS011;23050;51.776;22.638;2023-10-31T09:14:09;8.40;;;3.33;;
37157;SDS011;23050;51.776;22.638;2023-10-31T09:16:35;5.20;;;2.30;;
37157;SDS011;23050;51.776;22.638;2023-10-31T09:19:00;5.47;;;2.55;;
37157;SDS011;23050;51.776;22.638;2023-10-31T09:21:26;8.00;;;2.92;;
37157;SDS011;23050;51.776;22.638;2023-10-31T09:23:52;7.13;;;3.08;;
37157;SDS011;23050;51.776;22.638;2023-10-31T09:26:17;4.55;;;2.28;;
37157;SDS011;23050;51.776;22.638;2023-10-31T09:28:43;3.83;;;2.50;;
37157;SDS011;23050;51.776;22.638;2023-10-31T09:31:15;7.10;;;2.67;;
37157;SDS011;23050;51.776;22.638;2023-10-31T09:33:44;7.05;;;2.47;;
37157;SDS011;23050;51.776;22.638;2023-10-31T09:36:11;6.32;;;2.75;;
37157;SDS011;23050;51.776;22.638;2023-10-31T09:38:38;6.10;;;3.00;;
37157;SDS011;23050;51.776;22.638;2023-10-31T09:41:04;8.73;;;3.35;;
37157;SDS011;23050;51.776;22.638;2023-10-31T09:43:30;5.30;;;2.53;;
37157;SDS011;23050;51.776;22.638;2023-10-31T09:45:56;5.85;;;2.33;;
37157;SDS011;23050;51.776;22.638;2023-10-31T09:48:22;5.55;;;2.47;;
37157;SDS011;23050;51.776;22.638;2023-10-31T09:50:48;7.40;;;2.50;;
37157;SDS011;23050;51.776;22.638;2023-10-31T09:53:14;10.10;;;3.10;;
37157;SDS011;23050;51.776;22.638;2023-10-31T09:58:10;7.43;;;3.08;;
37157;SDS011;23050;51.776;22.638;2023-10-31T10:00:36;7.00;;;3.35;;
37157;SDS011;23050;51.776;22.638;2023-10-31T10:03:03;7.47;;;3.10;;
37157;SDS011;23050;51.776;22.638;2023-10-31T10:05:31;6.28;;;2.80;;
37157;SDS011;23050;51.776;22.638;2023-10-31T10:07:57;8.35;;;2.55;;
37157;SDS011;23050;51.776;22.638;2023-10-31T10:10:23;10.07;;;2.92;;
37157;SDS011;23050;51.776;22.638;2023-10-31T10:12:51;7.07;;;2.60;;
37157;SDS011;23050;51.776;22.638;2023-10-31T10:15:17;6.10;;;2.60;;
37157;SDS011;23050;51.776;22.638;2023-10-31T10:17:48;5.72;;;2.60;;
37157;SDS011;23050;51.776;22.638;2023-10-31T10:20:15;6.75;;;2.42;;
37157;SDS011;23050;51.776;22.638;2023-10-31T10:22:41;5.32;;;2.80;;
37157;SDS011;23050;51.776;22.638;2023-10-31T10:25:12;7.00;;;2.65;;
37157;SDS011;23050;51.776;22.638;2023-10-31T10:27:41;5.90;;;2.40;;
37157;SDS011;23050;51.776;22.638;2023-10-31T10:30:07;9.75;;;3.53;;
37157;SDS011;23050;51.776;22.638;2023-10-31T10:32:34;5.97;;;2.75;;
37157;SDS011;23050;51.776;22.638;2023-10-31T10:35:00;7.45;;;3.25;;
37157;SDS011;23050;51.776;22.638;2023-10-31T10:37:26;6.50;;;3.03;;
37157;SDS011;23050;51.776;22.638;2023-10-31T10:39:52;8.82;;;3.65;;
37157;SDS011;23050;51.776;22.638;2023-10-31T10:42:27;10.63;;;3.67;;
37157;SDS011;23050;51.776;22.638;2023-10-31T10:44:54;9.23;;;3.88;;
37157;SDS011;23050;51.776;22.638;2023-10-31T10:47:24;9.18;;;2.70;;
37157;SDS011;23050;51.776;22.638;2023-10-31T10:49:50;8.98;;;3.08;;
37157;SDS011;23050;51.776;22.638;2023-10-31T10:52:25;9.85;;;3.90;;
37157;SDS011;23050;51.776;22.638;2023-10-31T10:54:58;9.95;;;4.32;;
37157;SDS011;23050;51.776;22.638;2023-10-31T11:00:19;11.20;;;4.38;;
37157;SDS011;23050;51.776;22.638;2023-10-31T11:02:49;7.93;;;3.60;;
37157;SDS011;23050;51.776;22.638;2023-10-31T11:05:17;16.38;;;5.15;;
37157;SDS011;23050;51.776;22.638;2023-10-31T11:07:43;15.93;;;5.25;;
37157;SDS011;23050;51.776;22.638;2023-10-31T11:10:10;16.55;;;4.32;;
37157;SDS011;23050;51.776;22.638;2023-10-31T11:12:37;10.30;;;3.92;;
37157;SDS011;23050;51.776;22.638;2023-10-31T11:15:04;6.97;;;3.20;;
37157;SDS011;23050;51.776;22.638;2023-10-31T11:17:34;11.57;;;4.40;;
37157;SDS011;23050;51.776;22.638;2023-10-31T11:20:03;12.35;;;4.38;;
37157;SDS011;23050;51.776;22.638;2023-10-31T11:22:39;8.40;;;3.20;;
37157;SDS011;23050;51.776;22.638;2023-10-31T11:25:07;6.57;;;2.28;;
37157;SDS011;23050;51.776;22.638;2023-10-31T11:27:33;7.90;;;2.97;;
37157;SDS011;23050;51.776;22.638;2023-10-31T11:30:00;14.77;;;5.50;;
37157;SDS011;23050;51.776;22.638;2023-10-31T11:32:31;7.93;;;3.97;;
37157;SDS011;23050;51.776;22.638;2023-10-31T11:34:57;6.15;;;3.28;;
37157;SDS011;23050;51.776;22.638;2023-10-31T11:37:25;8.98;;;3.15;;
37157;SDS011;23050;51.776;22.638;2023-10-31T11:40:14;10.50;;;4.78;;
37157;SDS011;23050;51.776;22.638;2023-10-31T11:42:43;10.45;;;5.20;;
37157;SDS011;23050;51.776;22.638;2023-10-31T11:45:12;9.43;;;4.05;;
37157;SDS011;23050;51.776;22.638;2023-10-31T11:47:50;12.65;;;3.60;;
37157;SDS011;23050;51.776;22.638;2023-10-31T11:50:16;10.15;;;4.18;;
37157;SDS011;23050;51.776;22.638;2023-10-31T11:52:42;11.85;;;3.92;;
37157;SDS011;23050;51.776;22.638;2023-10-31T11:55:09;10.60;;;4.07;;
37157;SDS011;23050;51.776;22.638;2023-10-31T11:57:35;13.98;;;4.97;;
37157;SDS011;23050;51.776;22.638;2023-10-31T12:00:02;8.80;;;3.15;;
37157;SDS011;23050;51.776;22.638;2023-10-31T12:02:29;10.70;;;3.95;;
37157;SDS011;23050;51.776;22.638;2023-10-31T12:05:10;9.90;;;3.17;;
37157;SDS011;23050;51.776;22.638;2023-10-31T12:07:44;7.97;;;3.00;;
37157;SDS011;23050;51.776;22.638;2023-10-31T12:10:11;10.85;;;3.78;;
37157;SDS011;23050;51.776;22.638;2023-10-31T12:12:37;7.55;;;2.90;;
37157;SDS011;23050;51.776;22.638;2023-10-31T12:15:07;7.20;;;2.83;;
37157;SDS011;23050;51.776;22.638;2023-10-31T12:17:36;7.05;;;2.72;;
37157;SDS011;23050;51.776;22.638;2023-10-31T12:20:05;5.75;;;3.20;;
37157;SDS011;23050;51.776;22.638;2023-10-31T12:22:32;5.70;;;2.38;;
37157;SDS011;23050;51.776;22.638;2023-10-31T12:25:05;11.40;;;4.00;;
37157;SDS011;23050;51.776;22.638;2023-10-31T12:27:48;8.15;;;2.92;;
37157;SDS011;23050;51.776;22.638;2023-10-31T12:30:19;8.65;;;3.30;;
37157;SDS011;23050;51.776;22.638;2023-10-31T12:32:52;7.05;;;2.65;;
37157;SDS011;23050;51.776;22.638;2023-10-31T12:35:23;5.28;;;2.90;;
37157;SDS011;23050;51.776;22.638;2023-10-31T12:37:50;7.93;;;3.45;;
37157;SDS011;23050;51.776;22.638;2023-10-31T12:40:17;7.90;;;2.72;;
37157;SDS011;23050;51.776;22.638;2023-10-31T12:42:44;9.80;;;3.47;;
37157;SDS011;23050;51.776;22.638;2023-10-31T12:45:14;6.70;;;2.70;;
37157;SDS011;23050;51.776;22.638;2023-10-31T12:47:40;6.82;;;2.78;;
37157;SDS011;23050;51.776;22.638;2023-10-31T12:50:11;8.40;;;2.92;;
37157;SDS011;23050;51.776;22.638;2023-10-31T12:52:51;4.50;;;2.50;;
37157;SDS011;23050;51.776;22.638;2023-10-31T12:55:18;6.20;;;2.65;;
37157;SDS011;23050;51.776;22.638;2023-10-31T12:57:48;7.82;;;3.83;;
37157;SDS011;23050;51.776;22.638;2023-10-31T13:00:14;8.32;;;3.83;;
37157;SDS011;23050;51.776;22.638;2023-10-31T13:02:43;7.03;;;3.15;;
37157;SDS011;23050;51.776;22.638;2023-10-31T13:05:12;13.35;;;4.43;;
37157;SDS011;23050;51.776;22.638;2023-10-31T13:07:41;8.00;;;3.30;;
37157;SDS011;23050;51.776;22.638;2023-10-31T13:10:17;7.95;;;2.80;;
37157;SDS011;23050;51.776;22.638;2023-10-31T13:12:47;7.70;;;3.28;;
37157;SDS011;23050;51.776;22.638;2023-10-31T13:15:14;12.63;;;3.80;;
37157;SDS011;23050;51.776;22.638;2023-10-31T13:17:40;9.35;;;2.92;;
37157;SDS011;23050;51.776;22.638;2023-10-31T13:20:10;10.07;;;3.25;;
37157;SDS011;23050;51.776;22.638;2023-10-31T13:22:36;7.05;;;3.65;;
37157;SDS011;23050;51.776;22.638;2023-10-31T13:25:06;12.10;;;3.80;;
37157;SDS011;23050;51.776;22.638;2023-10-31T13:27:34;12.73;;;4.93;;
37157;SDS011;23050;51.776;22.638;2023-10-31T13:30:01;9.27;;;4.10;;
37157;SDS011;23050;51.776;22.638;2023-10-31T13:32:27;19.63;;;8.05;;
37157;SDS011;23050;51.776;22.638;2023-10-31T13:34:53;11.02;;;4.60;;
37157;SDS011;23050;51.776;22.638;2023-10-31T13:37:18;7.28;;;3.47;;
37157;SDS011;23050;51.776;22.638;2023-10-31T13:39:44;6.50;;;3.28;;
37157;SDS011;23050;51.776;22.638;2023-10-31T13:42:10;5.90;;;2.88;;
37157;SDS011;23050;51.776;22.638;2023-10-31T13:44:36;11.02;;;3.35;;
37157;SDS011;23050;51.776;22.638;2023-10-31T13:47:02;6.93;;;3.38;;
37157;SDS011;23050;51.776;22.638;2023-10-31T13:49:28;10.55;;;3.92;;
37157;SDS011;23050;51.776;22.638;2023-10-31T13:51:54;15.85;;;5.53;;
37157;SDS011;23050;51.776;22.638;2023-10-31T13:54:20;16.85;;;6.35;;
37157;SDS011;23050;51.776;22.638;2023-10-31T13:56:46;10.02;;;3.42;;
37157;SDS011;23050;51.776;22.638;2023-10-31T13:59:12;8.07;;;2.92;;
37157;SDS011;23050;51.776;22.638;2023-10-31T14:01:38;16.50;;;5.63;;
37157;SDS011;23050;51.776;22.638;2023-10-31T14:04:05;15.63;;;5.22;;
37157;SDS011;23050;51.776;22.638;2023-10-31T14:06:32;9.90;;;3.75;;
37157;SDS011;23050;51.776;22.638;2023-10-31T14:08:58;13.05;;;4.28;;
37157;SDS011;23050;51.776;22.638;2023-10-31T14:11:25;11.40;;;4.03;;
37157;SDS011;23050;51.776;22.638;2023-10-31T14:13:51;7.32;;;2.92;;
37157;SDS011;23050;51.776;22.638;2023-10-31T14:16:17;18.23;;;4.55;;
37157;SDS011;23050;51.776;22.638;2023-10-31T14:18:44;13.35;;;4.63;;
37157;SDS011;23050;51.776;22.638;2023-10-31T14:21:11;14.13;;;6.50;;
37157;SDS011;23050;51.776;22.638;2023-10-31T14:23:36;11.50;;;6.22;;
37157;SDS011;23050;51.776;22.638;2023-10-31T14:26:02;14.48;;;6.43;;
37157;SDS011;23050;51.776;22.638;2023-10-31T14:28:28;11.57;;;5.57;;
37157;SDS011;23050;51.776;22.638;2023-10-31T14:30:53;11.45;;;4.40;;